Terminal Aerodrome Forecast
Issued by NWS

Home | Current Version | Previous Version | Text Only | Print | Product List | Glossary On
Versions: 1 2 3 4 5 6 7 8 9 10 11 12 13
000
FTAK31 PAFA 271126
TAFAFA
TAF
PAFA 271126Z 2712/2818 VRB04KT P6SM SCT040 OVC060
     FM272000 VRB04KT P6SM FEW060 SCT200
     FM280700 VRB04KT P6SM SKC=

USA.gov is the U.S. government's official web portal to all federal, state and local government web resources and services.